M I D A S
Marine Information and Data Acquisition System
Tripno 673 of the Zeeleeuw from 2004-03-22 09:02:38 to 2004-03-22 14:32:03
Back to CruiseResearch ActivitiesStationsMapUnderway DataData graphs

EquipmentUnitsComment
TimeDGPSUTC
LatitudeDGPSDM.mWGS84
LongitudeDGPSDM.mWGS84
HeadingGyrodeg 
SOGDGPSknotsSpeed over ground
COGDGPSdegCourse over ground
DepthEcho soundermeters200 kHz
Missing or incorrect values are displayed as -999
Navigation data collected by the RV Zeeleeuw from 2004-03-22 09:02:38 to 2004-03-22 14:32:03
Time Latitude Longitude Heading SOG COG Depth
2004-03-22 09:03:40 51°13.592 2°56.102 112.1 0.8 289 6.3
2004-03-22 09:04:40 51°13.605 2°56.042 118.9 3.2 293 -999
2004-03-22 09:05:41 51°13.638 2°55.952 125.7 4.2 302 -999
2004-03-22 09:06:41 51°13.672 2°55.848 114.7 4.6 292 -999
2004-03-22 09:07:40 51°13.687 2°55.768 98.6 1.7 283 12.2
2004-03-22 09:08:40 51°13.691 2°55.767 50.6 1.3 233 12.5
2004-03-22 09:09:40 51°13.69 2°55.748 4.9 2.6 355 -999
2004-03-22 09:10:41 51°13.754 2°55.694 336.7 5.7 332 9.1
2004-03-22 09:11:40 51°13.853 2°55.618 340.5 7.2 336 9
2004-03-22 09:12:41 51°13.968 2°55.535 340.1 7.6 335 9.4
2004-03-22 09:13:41 51°14.083 2°55.452 341.8 7.6 336 10.2
2004-03-22 09:14:41 51°14.213 2°55.331 330.1 9.8 324 10.2
2004-03-22 09:15:41 51°14.332 2°55.131 314.1 10.8 308 10
2004-03-22 09:16:41 51°14.463 2°54.916 323.4 11.6 313 9.6
2004-03-22 09:17:41 51°14.609 2°54.72 338.2 11.4 328 9.1
2004-03-22 09:18:40 51°14.724 2°54.559 312.6 6.8 299 9.2
2004-03-22 09:19:41 51°14.731 2°54.468 287.5 2.3 257 9.7
2004-03-22 09:20:41 51°14.717 2°54.423 275.5 1.6 230 9.7
2004-03-22 09:21:39 51°14.698 2°54.405 259 1.3 191 9.7
2004-03-22 09:22:41 51°14.681 2°54.403 230.2 0.9 186 10
2004-03-22 09:23:41 51°14.666 2°54.399 210.8 1 198 9.9
2004-03-22 09:24:40 51°14.65 2°54.395 194.4 1 191 10.1
2004-03-22 09:25:41 51°14.613 2°54.395 164.7 3.5 168 9.7
2004-03-22 09:26:41 51°14.592 2°54.477 73.3 3.7 68 10
2004-03-22 09:27:41 51°14.654 2°54.474 337.9 5.6 321 9.7
2004-03-22 09:28:41 51°14.789 2°54.374 351.7 10.5 342 9.4
2004-03-22 09:29:41 51°14.969 2°54.237 339.4 12.5 328 8
2004-03-22 09:30:41 51°15.152 2°54.06 342.7 12.9 332 8.5
2004-03-22 09:31:41 51°15.342 2°53.896 341.9 13.1 331 9.2
2004-03-22 09:32:41 51°15.534 2°53.732 342.1 12.9 333 10.1
2004-03-22 09:33:41 51°15.724 2°53.564 341.8 12.8 331 10.3
2004-03-22 09:34:41 51°15.912 2°53.395 342.9 12.8 331 11
2004-03-22 09:35:41 51°16.101 2°53.237 343.2 12.7 335 11.3
2004-03-22 09:36:41 51°16.293 2°53.091 344.8 12.9 335 11.7
2004-03-22 09:37:41 51°16.486 2°52.948 344.2 12.9 335 12
2004-03-22 09:38:41 51°16.676 2°52.809 344 12.6 335 10.7
2004-03-22 09:39:41 51°16.864 2°52.666 344.2 12.5 335 8.8
2004-03-22 09:40:41 51°17.054 2°52.523 345.5 12.4 336 9.2
2004-03-22 09:41:41 51°17.242 2°52.379 344.7 12.6 335 9.9
2004-03-22 09:42:41 51°17.42 2°52.204 336.3 12.7 326 10.4
2004-03-22 09:43:41 51°17.588 2°52.001 332.8 12.5 322 10.2
2004-03-22 09:44:41 51°17.754 2°51.792 332.5 12.7 324 10
2004-03-22 09:45:41 51°17.915 2°51.573 325.1 13 314 10.3
2004-03-22 09:46:41 51°18.061 2°51.318 323.6 12.9 313 10.9
2004-03-22 09:47:40 51°18.204 2°51.066 322.8 12.9 311 12.5
2004-03-22 09:48:41 51°18.351 2°50.795 322.6 13.3 311 13.3
2004-03-22 09:49:41 51°18.493 2°50.534 323.3 12.8 310 13.9
2004-03-22 09:50:41 51°18.635 2°50.273 320.9 13.1 309 13.6
2004-03-22 09:51:41 51°18.771 2°49.991 318.6 13.5 308 12.8
2004-03-22 09:52:41 51°18.909 2°49.714 318.9 13.4 309 10.7
2004-03-22 09:53:41 51°19.05 2°49.436 318.1 13.3 309 11
2004-03-22 09:54:41 51°19.181 2°49.143 314.3 13.5 304 12.3
2004-03-22 09:55:41 51°19.306 2°48.852 315.9 13 305 15.7
2004-03-22 09:56:41 51°19.431 2°48.556 314.8 13.4 303 17.5
2004-03-22 09:57:40 51°19.541 2°48.253 306.5 13.7 294 20.1
2004-03-22 09:58:40 51°19.621 2°47.904 297.6 14 285 21.3
2004-03-22 09:59:41 51°19.662 2°47.525 292.2 14.3 280 21.5
2004-03-22 10:00:41 51°19.713 2°47.155 292.7 14.3 282 21.3
2004-03-22 10:01:41 51°19.767 2°46.788 294.6 14.1 283 20.1
2004-03-22 10:02:41 51°19.816 2°46.422 292.4 13.9 281 16.9
2004-03-22 10:03:41 51°19.864 2°46.056 287.5 13.8 278 13.1
2004-03-22 10:04:41 51°19.878 2°45.68 280 14.5 272 13.3
2004-03-22 10:05:41 51°19.887 2°45.297 280.5 14 273 19.8
2004-03-22 10:06:41 51°19.895 2°44.921 279.7 14.3 270 22.5
2004-03-22 10:07:41 51°19.876 2°44.539 273.4 14.6 266 23.7
2004-03-22 10:08:41 51°19.855 2°44.161 273.3 14.4 265 24.1
2004-03-22 10:09:41 51°19.797 2°43.792 257.9 14.7 249 24.7
2004-03-22 10:10:41 51°19.683 2°43.446 246.6 14.8 241 25.4
2004-03-22 10:11:41 51°19.529 2°43.134 235.3 14.9 226 25.4
2004-03-22 10:12:41 51°19.37 2°42.831 235.9 14.9 229 24.5
2004-03-22 10:13:41 51°19.215 2°42.526 235.9 14.5 233 23.6
2004-03-22 10:14:41 51°19.061 2°42.219 237.4 14.9 232 23.5
2004-03-22 10:15:41 51°18.904 2°41.912 236.7 14.8 231 21.8
2004-03-22 10:16:41 51°18.751 2°41.604 237.3 15 233 20.7
2004-03-22 10:17:41 51°18.599 2°41.294 236.8 14.9 232 19.5
2004-03-22 10:18:41 51°18.447 2°40.98 236.9 15 233 16.9
2004-03-22 10:19:41 51°18.296 2°40.665 237.3 15.3 230 18.6
2004-03-22 10:20:41 51°18.146 2°40.35 237.8 14.7 231 18.3
2004-03-22 10:21:41 51°18 2°40.041 237.4 13.4 233 19.2
2004-03-22 10:22:41 51°17.879 2°39.816 230.2 10.2 225 19.7
2004-03-22 10:23:41 51°17.783 2°39.645 248.8 6.4 241 17.9
2004-03-22 10:24:41 51°17.759 2°39.567 286.3 1.4 198 17.1
2004-03-22 10:25:41 51°17.739 2°39.561 288.1 1 178 5.8
2004-03-22 10:26:41 51°17.72 2°39.565 282.4 1.3 167 17.7
2004-03-22 10:27:41 51°17.7 2°39.574 265.5 1.1 153 18.7
2004-03-22 10:28:40 51°17.685 2°39.584 246.2 0.9 165 19.4
2004-03-22 10:29:41 51°17.672 2°39.588 227.4 0.8 197 19.4
2004-03-22 10:30:41 51°17.656 2°39.586 208.8 1 184 20
2004-03-22 10:31:41 51°17.64 2°39.582 196.7 1.1 183 20.2
2004-03-22 10:32:40 51°17.621 2°39.578 190.9 1.2 187 19.6
2004-03-22 10:33:41 51°17.6 2°39.573 193.7 1.4 197 19
2004-03-22 10:34:41 51°17.578 2°39.565 203.1 1.5 189 18
2004-03-22 10:35:41 51°17.555 2°39.556 208.2 1.4 202 17
2004-03-22 10:36:41 51°17.532 2°39.547 209.3 1.5 197 16.6
2004-03-22 10:37:41 51°17.508 2°39.539 209.2 1.5 191 15.1
2004-03-22 10:38:41 51°17.485 2°39.533 206.4 1.3 184 13.9
2004-03-22 10:39:41 51°17.443 2°39.512 208.2 3.8 203 13.3
2004-03-22 10:40:41 51°17.385 2°39.469 213.8 3.9 205 13
2004-03-22 10:41:41 51°17.332 2°39.429 216.1 3.2 206 12.7
2004-03-22 10:42:41 51°17.286 2°39.393 219.2 2.9 210 12.7
2004-03-22 10:43:41 51°17.244 2°39.363 217.7 2.7 203 12.2
2004-03-22 10:44:41 51°17.204 2°39.336 216 2.6 202 11.4
2004-03-22 10:45:41 51°17.163 2°39.31 215.1 2.8 199 11.7
2004-03-22 10:46:41 51°17.121 2°39.287 214.2 2.7 193 11.2
2004-03-22 10:47:41 51°17.081 2°39.267 212.2 2.5 195 11.3
2004-03-22 10:48:41 51°17.04 2°39.248 210 2.7 197 12.4
2004-03-22 10:49:41 51°16.998 2°39.232 208.1 2.6 193 12.4
2004-03-22 10:50:41 51°16.957 2°39.216 206.9 2.6 192 12.2
2004-03-22 10:51:41 51°16.914 2°39.203 206.1 2.7 194 12.5
2004-03-22 10:52:41 51°16.871 2°39.187 210.1 2.6 195 12.4
2004-03-22 10:53:41 51°16.826 2°39.167 212.6 2.9 196 12.5
2004-03-22 10:54:41 51°16.779 2°39.143 214.4 3 192 12.8
2004-03-22 10:55:41 51°16.733 2°39.118 215.5 3 199 12.6
2004-03-22 10:56:41 51°16.687 2°39.099 213.9 3 193 13
2004-03-22 10:57:41 51°16.641 2°39.074 217.2 2.9 199 12.6
2004-03-22 10:58:41 51°16.596 2°39.053 216.2 2.9 198 12.6
2004-03-22 10:59:41 51°16.552 2°39.03 219.7 2.8 202 12.4
2004-03-22 11:00:41 51°16.509 2°39.002 224.8 2.8 208 13
2004-03-22 11:01:41 51°16.468 2°38.975 226.8 2.6 206 13.4
2004-03-22 11:02:41 51°16.43 2°38.951 227.5 2.4 194 12.6
2004-03-22 11:03:41 51°16.392 2°38.924 231.2 2.8 208 13.4
2004-03-22 11:04:41 51°16.351 2°38.889 234.3 2.7 209 13.7
2004-03-22 11:05:41 51°16.311 2°38.85 235.5 2.8 212 13.3
2004-03-22 11:06:41 51°16.273 2°38.809 238.4 2.7 213 13.5
2004-03-22 11:07:40 51°16.231 2°38.773 229.5 2.9 211 12.7
2004-03-22 11:08:41 51°16.189 2°38.736 233.5 2.9 209 13.4
2004-03-22 11:09:41 51°16.148 2°38.699 232.8 2.7 213 12.5
2004-03-22 11:10:41 51°16.105 2°38.663 228.1 2.9 203 13.2
2004-03-22 11:11:41 51°16.059 2°38.634 222 3 198 13.2
2004-03-22 11:12:41 51°16.011 2°38.609 220.5 3 200 13
2004-03-22 11:13:41 51°15.963 2°38.578 225.3 3 203 13
2004-03-22 11:14:41 51°15.918 2°38.548 226.7 2.8 208 13.1
2004-03-22 11:15:41 51°15.875 2°38.518 229.4 2.8 206 12.7
2004-03-22 11:16:41 51°15.835 2°38.488 232.5 2.5 205 13.6
2004-03-22 11:17:41 51°15.799 2°38.455 240.2 2.3 213 13.6
2004-03-22 11:18:41 51°15.766 2°38.425 236.1 2.5 206 13
2004-03-22 11:19:41 51°15.727 2°38.402 227.6 2.7 195 13.3
2004-03-22 11:20:41 51°15.689 2°38.387 224.2 2 183 12.9
2004-03-22 11:21:41 51°15.662 2°38.393 221.9 1.4 162 13.4
2004-03-22 11:22:41 51°15.643 2°38.411 219.4 1.2 144 13.7
2004-03-22 11:23:41 51°15.627 2°38.433 219.1 1.3 134 13.8
2004-03-22 11:24:41 51°15.612 2°38.459 217.7 1.3 132 14.4
2004-03-22 11:25:41 51°15.599 2°38.486 217.7 1.4 124 15.2
2004-03-22 11:26:41 51°15.581 2°38.509 220.9 1.7 155 15.7
2004-03-22 11:27:41 51°15.552 2°38.5 244 2 206 15.2
2004-03-22 11:28:41 51°15.539 2°38.454 283 1.9 278 15.3
2004-03-22 11:29:41 51°15.563 2°38.436 342.6 2.2 12 14.5
2004-03-22 11:30:41 51°15.614 2°38.486 21 4.6 32 14.8
2004-03-22 11:31:41 51°15.684 2°38.552 21.1 4.6 32 15.5
2004-03-22 11:32:41 51°15.745 2°38.609 15.2 4.2 28 15.2
2004-03-22 11:33:41 51°15.827 2°38.696 34.1 7 41 16.5
2004-03-22 11:34:41 51°15.892 2°38.837 63.7 5.9 70 17
2004-03-22 11:35:41 51°15.884 2°38.96 116.7 4 111 18.6
2004-03-22 11:36:41 51°15.874 2°39.02 148.1 1.3 23 19.1
2004-03-22 11:37:41 51°15.891 2°39.039 148.3 1.3 87 19.3
2004-03-22 11:38:40 51°15.891 2°39.076 164.7 1.6 94 19.9
2004-03-22 11:39:41 51°15.888 2°39.118 173.7 1.4 102 20.2
2004-03-22 11:40:41 51°15.889 2°39.158 176 1.7 85 20.6
2004-03-22 11:41:41 51°15.886 2°39.198 179.6 1.8 100 20.8
2004-03-22 11:42:41 51°15.879 2°39.239 187.2 1.6 102 21.4
2004-03-22 11:43:41 51°15.872 2°39.278 191.8 1.6 108 20.9
2004-03-22 11:44:41 51°15.865 2°39.316 195.6 1.6 103 21.7
2004-03-22 11:45:41 51°15.857 2°39.353 203.4 1.5 108 21.9
2004-03-22 11:46:41 51°15.85 2°39.392 202.2 1.6 110 22.1
2004-03-22 11:47:41 51°15.776 2°39.381 209 7.3 194 22.1
2004-03-22 11:48:41 51°15.618 2°39.306 206.8 11.4 197 21.6
2004-03-22 11:49:41 51°15.413 2°39.207 202.5 13.4 193 21.3
2004-03-22 11:50:41 51°15.193 2°39.141 197.3 13.5 191 20.4
2004-03-22 11:51:41 51°14.973 2°39.088 196.4 13.7 187 19.7
2004-03-22 11:52:41 51°14.754 2°39.028 200.1 13.1 191 19.2
2004-03-22 11:53:41 51°14.533 2°38.97 197.3 13.4 187 19.9
2004-03-22 11:54:41 51°14.31 2°38.936 194.6 13.6 189 18.5
2004-03-22 11:55:41 51°14.085 2°38.897 198.9 13.5 187 14
2004-03-22 11:56:41 51°13.877 2°38.785 213.8 13.4 204 15.4
2004-03-22 11:57:41 51°13.686 2°38.629 217.5 12.8 209 16.7
2004-03-22 11:58:41 51°13.491 2°38.478 214.9 13 208 17.2
2004-03-22 11:59:41 51°13.298 2°38.327 214.9 12.8 207 16.9
2004-03-22 12:00:41 51°13.105 2°38.175 214.2 12.9 207 16.5
2004-03-22 12:01:41 51°12.917 2°38.021 216.7 12.6 206 16.3
2004-03-22 12:02:41 51°12.736 2°37.857 217.6 12.6 207 15.7
2004-03-22 12:03:41 51°12.557 2°37.691 219.5 12.3 211 15.2
2004-03-22 12:04:41 51°12.378 2°37.524 217.9 12.6 209 14.5
2004-03-22 12:05:41 51°12.198 2°37.359 217.4 12.5 210 14.2
2004-03-22 12:06:41 51°12.019 2°37.193 217.9 12.5 213 14.4
2004-03-22 12:07:41 51°11.84 2°37.026 217.8 12.4 210 14.7
2004-03-22 12:08:41 51°11.658 2°36.859 216.7 12.6 210 14.6
2004-03-22 12:09:41 51°11.478 2°36.693 219.4 12.5 211 14.9
2004-03-22 12:10:41 51°11.301 2°36.524 217.9 12.4 211 14.9
2004-03-22 12:11:41 51°11.125 2°36.352 220.1 12.4 211 14.8
2004-03-22 12:12:41 51°10.957 2°36.164 221.7 12.4 211 14.3
2004-03-22 12:13:41 51°10.789 2°35.973 223.5 12.2 219 13.7
2004-03-22 12:14:41 51°10.623 2°35.783 224.2 12.5 220 13.6
2004-03-22 12:15:41 51°10.456 2°35.592 221.8 12.4 218 13.7
2004-03-22 12:16:41 51°10.289 2°35.406 221.3 12.2 214 14.6
2004-03-22 12:17:41 51°10.12 2°35.22 222 12.3 217 14.2
2004-03-22 12:18:41 51°9.953 2°35.031 222.7 12.5 217 15.2
2004-03-22 12:19:41 51°9.785 2°34.844 221.2 12.4 213 19
2004-03-22 12:20:41 51°9.62 2°34.661 222.3 12.2 215 21.2
2004-03-22 12:21:41 51°9.454 2°34.488 221.6 11.8 215 22.5
2004-03-22 12:22:41 51°9.294 2°34.312 222.1 11.6 214 21.5
2004-03-22 12:23:41 51°9.134 2°34.14 222.2 11.7 216 20.1
2004-03-22 12:24:41 51°8.973 2°33.963 223 11.6 216 19.3
2004-03-22 12:25:41 51°8.811 2°33.781 222 11.9 213 19
2004-03-22 12:26:41 51°8.649 2°33.602 221.6 12 210 18.7
2004-03-22 12:27:41 51°8.486 2°33.419 222.9 11.9 215 19.5
2004-03-22 12:28:41 51°8.334 2°33.25 222.3 10.1 213 19.8
2004-03-22 12:29:41 51°8.211 2°33.125 221.9 7.1 214 20
2004-03-22 12:30:41 51°8.149 2°33.056 232.9 3.3 218 19.6
2004-03-22 12:31:41 51°8.131 2°33.01 242.3 1.9 230 19.9
2004-03-22 12:32:41 51°8.104 2°33 225.2 0.8 157 19.4
2004-03-22 12:33:41 51°8.108 2°33.029 248.2 1.3 73 19.5
2004-03-22 12:34:41 51°8.116 2°33.065 252.4 1.4 67 19.5
2004-03-22 12:35:41 51°8.126 2°33.103 254 1.7 69 19.6
2004-03-22 12:36:41 51°8.137 2°33.149 253 1.9 70 19.6
2004-03-22 12:37:41 51°8.149 2°33.198 244.3 2 70 19.6
2004-03-22 12:38:41 51°8.16 2°33.247 234 1.8 71 19.3
2004-03-22 12:39:41 51°8.168 2°33.292 226.5 1.7 79 19.7
2004-03-22 12:40:41 51°8.173 2°33.333 220.7 1.5 84 19.3
2004-03-22 12:41:41 51°8.175 2°33.369 220.4 1.3 89 19.2
2004-03-22 12:42:41 51°8.175 2°33.4 223.1 1.1 89 19.2
2004-03-22 12:43:41 51°8.175 2°33.427 228 1.1 89 19.2
2004-03-22 12:44:41 51°8.176 2°33.444 247.9 0.4 243 19
2004-03-22 12:45:41 51°8.2 2°33.421 308.9 2.3 354 19.5
2004-03-22 12:46:41 51°8.247 2°33.443 0.7 3.5 28 19.8
2004-03-22 12:47:41 51°8.299 2°33.504 24.3 4.1 41 20.1
2004-03-22 12:48:41 51°8.352 2°33.572 20.7 4.1 40 19.9
2004-03-22 12:49:41 51°8.4 2°33.639 19.7 3.7 42 20.4
2004-03-22 12:50:41 51°8.448 2°33.706 21.9 4 42 20.1
2004-03-22 12:51:41 51°8.499 2°33.784 36 4.5 48 20.3
2004-03-22 12:52:41 51°8.546 2°33.878 50.4 4.5 54 20.4
2004-03-22 12:53:41 51°8.588 2°33.979 57.2 4.6 57 20.1
2004-03-22 12:54:41 51°8.627 2°34.084 62.1 4.5 60 20.4
2004-03-22 12:55:41 51°8.665 2°34.191 62.4 4.6 61 20
2004-03-22 12:56:41 51°8.703 2°34.292 56.9 4.4 58 20
2004-03-22 12:57:41 51°8.74 2°34.391 60.3 4.3 60 20.5
2004-03-22 12:58:41 51°8.777 2°34.493 62.4 4.5 62 20.5
2004-03-22 12:59:41 51°8.81 2°34.599 71.4 4.5 66 20.5
2004-03-22 13:00:41 51°8.84 2°34.709 76.2 4.5 69 20.1
2004-03-22 13:01:41 51°8.865 2°34.821 83 4.5 71 20.1
2004-03-22 13:02:41 51°8.882 2°34.934 93.8 4.3 78 19.9
2004-03-22 13:03:41 51°8.899 2°35.047 84.3 4.4 74 19.7
2004-03-22 13:04:41 51°8.925 2°35.156 70.4 4.4 66 19.6
2004-03-22 13:05:41 51°8.958 2°35.259 59.7 4.4 60 19.8
2004-03-22 13:06:41 51°8.994 2°35.363 64.1 4.5 62 19.8
2004-03-22 13:07:41 51°9.027 2°35.471 67.8 4.7 65 19.7
2004-03-22 13:08:41 51°9.057 2°35.583 74.7 4.6 69 19.7
2004-03-22 13:09:41 51°9.082 2°35.699 80.7 4.7 71 19.6
2004-03-22 13:10:41 51°9.107 2°35.816 77.1 4.7 70 19.6
2004-03-22 13:11:41 51°9.137 2°35.928 69.2 4.7 65 19.3
2004-03-22 13:12:41 51°9.171 2°36.037 61.6 4.5 62 19.4
2004-03-22 13:13:41 51°9.208 2°36.14 56.5 4.4 60 19.4
2004-03-22 13:14:41 51°9.245 2°36.24 59.1 4.3 60 19.3
2004-03-22 13:15:41 51°9.278 2°36.34 62.9 4.4 66 19.2
2004-03-22 13:16:41 51°9.309 2°36.442 65.2 4.2 65 19.2
2004-03-22 13:17:41 51°9.34 2°36.543 66.2 4.3 65 19.2
2004-03-22 13:18:41 51°9.369 2°36.647 69.6 4.2 68 19.4
2004-03-22 13:19:41 51°9.397 2°36.75 71.8 4.2 67 19.4
2004-03-22 13:20:41 51°9.421 2°36.852 76.4 4.1 70 18.9
2004-03-22 13:21:41 51°9.444 2°36.954 78.5 4.1 71 19
2004-03-22 13:22:41 51°9.468 2°37.057 79.6 4.2 70 18.7
2004-03-22 13:23:41 51°9.49 2°37.162 81.9 4.3 72 18.4
2004-03-22 13:24:41 51°9.51 2°37.269 83.5 4.3 73 18.2
2004-03-22 13:25:41 51°9.529 2°37.375 89.8 4.2 75 17.9
2004-03-22 13:26:41 51°9.543 2°37.488 96 4.5 79 17.4
2004-03-22 13:27:41 51°9.555 2°37.607 99 4.6 82 17
2004-03-22 13:28:41 51°9.566 2°37.728 96.5 4.6 82 16.6
2004-03-22 13:29:41 51°9.577 2°37.849 96.5 4.7 82 16.3
2004-03-22 13:30:41 51°9.583 2°37.983 108.1 4.7 88 15.8
2004-03-22 13:31:41 51°9.582 2°38.092 121.3 3.9 92 15.4
2004-03-22 13:32:41 51°9.577 2°38.183 133.1 3.2 96 15.2
2004-03-22 13:33:41 51°9.571 2°38.261 140.2 3 96 14.9
2004-03-22 13:34:41 51°9.564 2°38.33 148.9 2.6 97 14.8
2004-03-22 13:35:41 51°9.555 2°38.401 145.4 3.9 113 14.6
2004-03-22 13:36:41 51°9.565 2°38.577 76 8.9 71 14.4
2004-03-22 13:37:41 51°9.631 2°38.755 48.1 6.4 50 14.5
2004-03-22 13:38:41 51°9.69 2°38.848 32.3 4.4 43 14.6
2004-03-22 13:39:41 51°9.737 2°38.918 25.9 3.5 45 14.8
2004-03-22 13:40:41 51°9.777 2°38.979 21.1 3.9 41 14.7
2004-03-22 13:41:41 51°9.876 2°39.118 50.2 11 51 15.3
2004-03-22 13:42:41 51°9.981 2°39.444 69.2 15.3 65 15
2004-03-22 13:43:41 51°10.072 2°39.834 76.5 15.9 70 14.7
2004-03-22 13:44:41 51°10.167 2°40.223 74 15.8 67 14.8
2004-03-22 13:45:41 51°10.26 2°40.611 75.3 15.6 73 14.8
2004-03-22 13:46:41 51°10.353 2°41.001 73.3 16 67 14.8
2004-03-22 13:47:41 51°10.445 2°41.389 75.3 15.5 70 14.7
2004-03-22 13:48:41 51°10.537 2°41.776 75.5 15.6 70 14.7
2004-03-22 13:49:41 51°10.625 2°42.163 75.4 15.6 68 14.6
2004-03-22 13:50:41 51°10.717 2°42.552 74.6 15.6 70 14.5
2004-03-22 13:51:41 51°10.806 2°42.941 74.1 15.6 70 14.6
2004-03-22 13:52:41 51°10.895 2°43.327 76.5 15.5 71 14.6
2004-03-22 13:53:41 51°10.978 2°43.719 77.3 15.7 69 14.5
2004-03-22 13:54:41 51°11.066 2°44.105 73.4 15.4 70 14.6
2004-03-22 13:55:41 51°11.156 2°44.489 74.6 15.6 71 14.6
2004-03-22 13:56:41 51°11.251 2°44.87 73.2 15.6 67 14.8
2004-03-22 13:57:41 51°11.354 2°45.251 71.6 15.7 68 14.6
2004-03-22 13:58:41 51°11.465 2°45.625 69.4 15.7 64 14.9
2004-03-22 13:59:41 51°11.577 2°45.998 71.7 15.7 63 15
2004-03-22 14:00:41 51°11.688 2°46.375 70.9 15.6 63 15.1
2004-03-22 14:01:41 51°11.799 2°46.751 70 15.7 65 15
2004-03-22 14:02:41 51°11.919 2°47.118 66.7 15.6 62 15
2004-03-22 14:03:41 51°12.041 2°47.486 67.5 15.6 62 15.1
2004-03-22 14:04:41 51°12.167 2°47.852 65.8 15.9 60 15.1
2004-03-22 14:05:41 51°12.291 2°48.219 66.1 15.7 59 15.1
2004-03-22 14:06:41 51°12.413 2°48.588 66 15.6 62 15
2004-03-22 14:07:41 51°12.535 2°48.957 67.3 15.6 63 14.8
2004-03-22 14:08:41 51°12.658 2°49.323 67.2 15.5 62 14.4
2004-03-22 14:09:41 51°12.787 2°49.681 65.1 15.7 59 14.6
2004-03-22 14:10:41 51°12.916 2°50.04 64.6 15.6 59 14.2
2004-03-22 14:11:41 51°13.043 2°50.399 65.4 15.5 60 14.2
2004-03-22 14:12:41 51°13.171 2°50.757 65.7 15.5 60 14
2004-03-22 14:13:41 51°13.3 2°51.116 65.4 15.5 61 14
2004-03-22 14:14:41 51°13.425 2°51.479 66.3 15.6 62 13.9
2004-03-22 14:15:41 51°13.547 2°51.846 67.3 15.5 61 13.7
2004-03-22 14:16:41 51°13.645 2°52.082 50.1 7.9 48 13.8
2004-03-22 14:17:41 51°13.71 2°52.203 56.6 5.2 52 13.9
2004-03-22 14:18:41 51°13.746 2°52.304 72.5 4.1 65 13.7
2004-03-22 14:19:41 51°13.774 2°52.395 70.6 3.6 65 13.8
2004-03-22 14:20:41 51°13.8 2°52.475 64.3 3.3 60 13.8
2004-03-22 14:21:41 51°13.851 2°52.621 66 9.9 62 13.7
2004-03-22 14:22:41 51°13.958 2°52.933 66.8 15.1 61 13.3
2004-03-22 14:23:41 51°14.081 2°53.291 68.7 15.4 65 12.7
2004-03-22 14:24:41 51°14.198 2°53.654 68.2 15.3 62 12.4
2004-03-22 14:25:41 51°14.316 2°54.015 69.4 15.3 65 12.3
2004-03-22 14:26:41 51°14.372 2°54.38 87.9 13.8 81 12.4
2004-03-22 14:27:41 51°14.399 2°54.74 94.1 13.7 88 13.4
2004-03-22 14:28:41 51°14.358 2°55.05 124.4 10.6 120 13.9
2004-03-22 14:29:41 51°14.266 2°55.257 132.1 8.8 127 13.8
2004-03-22 14:30:41 51°14.166 2°55.383 154 7.3 152 13.8
2004-03-22 14:31:41 51°14.054 2°55.468 158.5 7.8 155 13.7